Overview Statistics Trail Chart Weather Telemetry Raw packets
 

This is the latest recevied weather packets stored in our database for station/object KE0SWK-13. If no packets are shown the sender has not sent any weather packets the latest 10 day(s).

<< 1 2 3 4 5 6 7 >>
Time Temp. Humidity Pressure Rain* Wind** Luminosity Snow
1788296222 -17.78° C 100% 0 hPa 0 mm - - -
1788295316 -17.78° C 100% 0 hPa 0 mm - - -
1788294409 -17.78° C 100% 0 hPa 0 mm - - -
1788292592 -17.78° C 100% 0 hPa 0 mm - - -
1788290777 -17.78° C 100% 0 hPa 0 mm - - -
1788288064 39.44° C 34% 0 hPa 0 mm - - -
1788287157 -17.78° C 100% 0 hPa 0 mm - - -
1788286250 -17.78° C 100% 0 hPa 0 mm - - -
1788284437 -17.78° C 100% 0 hPa 0 mm - - -
1788283530 37.78° C 38% 0 hPa 0 mm - - -
1788282626 -17.78° C 100% 0 hPa 0 mm - - -
1788275367 -17.78° C 100% 0 hPa 0 mm - - -
1788274459 -17.78° C 100% 0 hPa 0 mm - - -
1788272652 33.33° C 46% 0 hPa 0 mm - - -
1788272398 -17.78° C 100% 0 hPa 0 mm - - -
1788271745 -17.78° C 100% 0 hPa 0 mm - - -
1788268119 -17.78° C 100% 0 hPa 0 mm - - -
1788267213 25.56° C 60% 0 hPa 0 mm - - -
1788265492 22.22° C 68% 0 hPa 0 mm - - -
1788265402 22.22° C 68% 0 hPa 0 mm - - -
1788264493 -17.78° C 100% 0 hPa 0 mm - - -
1788262679 -17.78° C 100% 0 hPa 0 mm - - -
1788260864 -17.78° C 100% 0 hPa 0 mm - - -
1788256335 24.44° C 59% 0 hPa 0 mm - - -
1788255570 -17.78° C 100% 0 hPa 0 mm - - -

* Rain latest hour (hover to see other rain measurements)
** Current wind speed in m/s (hover to see current wind gust speed)